sensor_id;sensor_type;location;lat;lon;timestamp;P1;durP1;ratioP1;P2;durP2;ratioP2
13969;SDS011;7057;49.984;8.404;2022-11-10T00:01:03;7.53;;;3.13;;
13969;SDS011;7057;49.984;8.404;2022-11-10T00:03:31;4.80;;;2.72;;
13969;SDS011;7057;49.984;8.404;2022-11-10T00:06:00;6.47;;;3.13;;
13969;SDS011;7057;49.984;8.404;2022-11-10T00:08:28;4.03;;;2.60;;
13969;SDS011;7057;49.984;8.404;2022-11-10T00:10:55;6.32;;;2.72;;
13969;SDS011;7057;49.984;8.404;2022-11-10T00:13:27;4.40;;;2.67;;
13969;SDS011;7057;49.984;8.404;2022-11-10T00:15:59;6.25;;;2.72;;
13969;SDS011;7057;49.984;8.404;2022-11-10T00:18:44;5.75;;;3.08;;
13969;SDS011;7057;49.984;8.404;2022-11-10T00:21:12;6.40;;;2.80;;
13969;SDS011;7057;49.984;8.404;2022-11-10T00:23:40;4.63;;;2.88;;
13969;SDS011;7057;49.984;8.404;2022-11-10T00:26:11;3.88;;;2.75;;
13969;SDS011;7057;49.984;8.404;2022-11-10T00:28:41;5.38;;;2.88;;
13969;SDS011;7057;49.984;8.404;2022-11-10T00:31:09;4.70;;;2.70;;
13969;SDS011;7057;49.984;8.404;2022-11-10T00:33:38;5.22;;;2.65;;
13969;SDS011;7057;49.984;8.404;2022-11-10T00:36:06;6.82;;;2.85;;
13969;SDS011;7057;49.984;8.404;2022-11-10T00:38:33;3.80;;;2.45;;
13969;SDS011;7057;49.984;8.404;2022-11-10T00:41:01;4.78;;;2.83;;
13969;SDS011;7057;49.984;8.404;2022-11-10T00:43:29;4.93;;;2.90;;
13969;SDS011;7057;49.984;8.404;2022-11-10T00:45:57;4.15;;;2.55;;
13969;SDS011;7057;49.984;8.404;2022-11-10T00:48:25;4.18;;;2.70;;
13969;SDS011;7057;49.984;8.404;2022-11-10T00:50:52;5.93;;;3.10;;
13969;SDS011;7057;49.984;8.404;2022-11-10T00:53:19;5.72;;;3.00;;
13969;SDS011;7057;49.984;8.404;2022-11-10T00:55:46;3.87;;;2.60;;
13969;SDS011;7057;49.984;8.404;2022-11-10T00:58:14;6.80;;;2.70;;
13969;SDS011;7057;49.984;8.404;2022-11-10T01:00:41;4.65;;;2.70;;
13969;SDS011;7057;49.984;8.404;2022-11-10T01:03:12;4.38;;;3.08;;
13969;SDS011;7057;49.984;8.404;2022-11-10T01:05:40;3.20;;;2.20;;
13969;SDS011;7057;49.984;8.404;2022-11-10T01:08:08;3.55;;;2.60;;
13969;SDS011;7057;49.984;8.404;2022-11-10T01:10:36;2.70;;;2.37;;
13969;SDS011;7057;49.984;8.404;2022-11-10T01:13:03;3.83;;;2.43;;
13969;SDS011;7057;49.984;8.404;2022-11-10T01:15:30;3.55;;;2.78;;
13969;SDS011;7057;49.984;8.404;2022-11-10T01:17:57;3.90;;;2.50;;
13969;SDS011;7057;49.984;8.404;2022-11-10T01:20:26;3.83;;;2.30;;
13969;SDS011;7057;49.984;8.404;2022-11-10T01:22:53;4.57;;;2.33;;
13969;SDS011;7057;49.984;8.404;2022-11-10T01:25:20;5.43;;;2.57;;
13969;SDS011;7057;49.984;8.404;2022-11-10T01:27:47;3.90;;;2.40;;
13969;SDS011;7057;49.984;8.404;2022-11-10T01:30:15;3.27;;;2.40;;
13969;SDS011;7057;49.984;8.404;2022-11-10T01:32:43;5.28;;;2.50;;
13969;SDS011;7057;49.984;8.404;2022-11-10T01:35:10;4.57;;;2.38;;
13969;SDS011;7057;49.984;8.404;2022-11-10T01:37:38;3.90;;;2.45;;
13969;SDS011;7057;49.984;8.404;2022-11-10T01:40:06;5.10;;;2.30;;
13969;SDS011;7057;49.984;8.404;2022-11-10T01:42:40;6.87;;;2.40;;
13969;SDS011;7057;49.984;8.404;2022-11-10T01:45:25;8.87;;;2.43;;
13969;SDS011;7057;49.984;8.404;2022-11-10T01:48:12;5.47;;;2.93;;
13969;SDS011;7057;49.984;8.404;2022-11-10T01:50:43;6.13;;;2.07;;
13969;SDS011;7057;49.984;8.404;2022-11-10T01:53:16;7.27;;;2.53;;
13969;SDS011;7057;49.984;8.404;2022-11-10T01:55:48;4.67;;;2.30;;
13969;SDS011;7057;49.984;8.404;2022-11-10T01:58:19;5.70;;;2.55;;
13969;SDS011;7057;49.984;8.404;2022-11-10T02:00:50;4.90;;;2.70;;
13969;SDS011;7057;49.984;8.404;2022-11-10T02:03:20;3.67;;;2.38;;
13969;SDS011;7057;49.984;8.404;2022-11-10T02:05:54;3.75;;;2.63;;
13969;SDS011;7057;49.984;8.404;2022-11-10T02:08:23;5.15;;;2.30;;
13969;SDS011;7057;49.984;8.404;2022-11-10T02:10:51;5.47;;;2.70;;
13969;SDS011;7057;49.984;8.404;2022-11-10T02:13:18;5.20;;;2.60;;
13969;SDS011;7057;49.984;8.404;2022-11-10T02:15:45;3.40;;;2.37;;
13969;SDS011;7057;49.984;8.404;2022-11-10T02:18:12;5.73;;;2.30;;
13969;SDS011;7057;49.984;8.404;2022-11-10T02:20:43;5.57;;;2.20;;
13969;SDS011;7057;49.984;8.404;2022-11-10T02:23:11;4.87;;;2.27;;
13969;SDS011;7057;49.984;8.404;2022-11-10T02:25:40;6.43;;;2.30;;
13969;SDS011;7057;49.984;8.404;2022-11-10T02:28:07;3.70;;;2.50;;
13969;SDS011;7057;49.984;8.404;2022-11-10T02:30:34;7.67;;;2.60;;
13969;SDS011;7057;49.984;8.404;2022-11-10T02:33:02;7.97;;;2.93;;
13969;SDS011;7057;49.984;8.404;2022-11-10T02:35:29;6.47;;;3.80;;
13969;SDS011;7057;49.984;8.404;2022-11-10T02:37:57;7.27;;;3.80;;
13969;SDS011;7057;49.984;8.404;2022-11-10T02:40:25;5.75;;;3.47;;
13969;SDS011;7057;49.984;8.404;2022-11-10T02:42:52;5.10;;;3.70;;
13969;SDS011;7057;49.984;8.404;2022-11-10T02:45:19;6.07;;;3.20;;
13969;SDS011;7057;49.984;8.404;2022-11-10T02:47:46;7.13;;;3.13;;
13969;SDS011;7057;49.984;8.404;2022-11-10T02:50:13;6.93;;;3.05;;
13969;SDS011;7057;49.984;8.404;2022-11-10T02:52:41;5.25;;;3.00;;
13969;SDS011;7057;49.984;8.404;2022-11-10T02:55:10;4.80;;;2.75;;
13969;SDS011;7057;49.984;8.404;2022-11-10T02:57:37;6.05;;;2.80;;
13969;SDS011;7057;49.984;8.404;2022-11-10T03:00:05;3.20;;;2.50;;
13969;SDS011;7057;49.984;8.404;2022-11-10T03:02:33;5.32;;;2.35;;
13969;SDS011;7057;49.984;8.404;2022-11-10T03:05:00;4.13;;;2.47;;
13969;SDS011;7057;49.984;8.404;2022-11-10T03:07:27;3.75;;;2.38;;
13969;SDS011;7057;49.984;8.404;2022-11-10T03:09:54;3.70;;;2.35;;
13969;SDS011;7057;49.984;8.404;2022-11-10T03:12:23;5.95;;;2.20;;
13969;SDS011;7057;49.984;8.404;2022-11-10T03:14:50;4.55;;;2.70;;
13969;SDS011;7057;49.984;8.404;2022-11-10T03:17:17;7.28;;;2.65;;
13969;SDS011;7057;49.984;8.404;2022-11-10T03:19:44;4.85;;;2.97;;
13969;SDS011;7057;49.984;8.404;2022-11-10T03:22:11;4.65;;;2.47;;
13969;SDS011;7057;49.984;8.404;2022-11-10T03:24:39;5.25;;;2.60;;
13969;SDS011;7057;49.984;8.404;2022-11-10T03:27:06;4.50;;;2.50;;
13969;SDS011;7057;49.984;8.404;2022-11-10T03:29:34;4.80;;;2.33;;
13969;SDS011;7057;49.984;8.404;2022-11-10T03:32:01;2.90;;;2.20;;
13969;SDS011;7057;49.984;8.404;2022-11-10T03:34:29;4.28;;;2.33;;
13969;SDS011;7057;49.984;8.404;2022-11-10T03:36:56;5.53;;;2.40;;
13969;SDS011;7057;49.984;8.404;2022-11-10T03:39:23;4.18;;;2.50;;
13969;SDS011;7057;49.984;8.404;2022-11-10T03:41:50;6.88;;;2.67;;
13969;SDS011;7057;49.984;8.404;2022-11-10T03:44:17;6.13;;;2.67;;
13969;SDS011;7057;49.984;8.404;2022-11-10T03:46:46;4.85;;;2.60;;
13969;SDS011;7057;49.984;8.404;2022-11-10T03:49:13;5.93;;;2.80;;
13969;SDS011;7057;49.984;8.404;2022-11-10T03:51:40;5.32;;;3.10;;
13969;SDS011;7057;49.984;8.404;2022-11-10T03:54:07;7.83;;;3.80;;
13969;SDS011;7057;49.984;8.404;2022-11-10T03:56:34;7.10;;;3.97;;
13969;SDS011;7057;49.984;8.404;2022-11-10T03:59:02;8.82;;;4.07;;
13969;SDS011;7057;49.984;8.404;2022-11-10T04:01:29;9.30;;;4.22;;
13969;SDS011;7057;49.984;8.404;2022-11-10T04:03:57;9.35;;;3.75;;
13969;SDS011;7057;49.984;8.404;2022-11-10T04:06:24;7.20;;;3.47;;
13969;SDS011;7057;49.984;8.404;2022-11-10T04:09:21;7.28;;;3.33;;
13969;SDS011;7057;49.984;8.404;2022-11-10T04:11:48;8.15;;;3.72;;
13969;SDS011;7057;49.984;8.404;2022-11-10T04:14:33;7.20;;;3.55;;
13969;SDS011;7057;49.984;8.404;2022-11-10T04:17:17;8.40;;;3.42;;
13969;SDS011;7057;49.984;8.404;2022-11-10T04:19:46;5.20;;;3.25;;
13969;SDS011;7057;49.984;8.404;2022-11-10T04:22:13;6.20;;;3.35;;
13969;SDS011;7057;49.984;8.404;2022-11-10T04:25:00;6.65;;;3.40;;
13969;SDS011;7057;49.984;8.404;2022-11-10T04:27:27;6.28;;;3.50;;
13969;SDS011;7057;49.984;8.404;2022-11-10T04:29:54;5.97;;;2.93;;
13969;SDS011;7057;49.984;8.404;2022-11-10T04:32:21;7.30;;;3.40;;
13969;SDS011;7057;49.984;8.404;2022-11-10T04:34:50;5.13;;;3.05;;
13969;SDS011;7057;49.984;8.404;2022-11-10T04:37:17;6.25;;;3.40;;
13969;SDS011;7057;49.984;8.404;2022-11-10T04:39:44;5.77;;;3.00;;
13969;SDS011;7057;49.984;8.404;2022-11-10T04:42:12;6.63;;;3.13;;
13969;SDS011;7057;49.984;8.404;2022-11-10T04:44:39;6.73;;;3.20;;
13969;SDS011;7057;49.984;8.404;2022-11-10T04:47:06;6.20;;;2.97;;
13969;SDS011;7057;49.984;8.404;2022-11-10T04:49:33;5.97;;;3.17;;
13969;SDS011;7057;49.984;8.404;2022-11-10T04:52:02;6.30;;;2.92;;
13969;SDS011;7057;49.984;8.404;2022-11-10T04:54:29;5.03;;;3.17;;
13969;SDS011;7057;49.984;8.404;2022-11-10T04:56:56;5.73;;;2.50;;
13969;SDS011;7057;49.984;8.404;2022-11-10T04:59:23;4.38;;;3.00;;
13969;SDS011;7057;49.984;8.404;2022-11-10T05:01:50;5.07;;;2.88;;
13969;SDS011;7057;49.984;8.404;2022-11-10T05:04:17;5.63;;;2.80;;
13969;SDS011;7057;49.984;8.404;2022-11-10T05:06:44;7.43;;;3.10;;
13969;SDS011;7057;49.984;8.404;2022-11-10T05:09:13;5.90;;;2.92;;
13969;SDS011;7057;49.984;8.404;2022-11-10T05:11:40;5.97;;;2.60;;
13969;SDS011;7057;49.984;8.404;2022-11-10T05:14:07;5.32;;;2.97;;
13969;SDS011;7057;49.984;8.404;2022-11-10T05:16:35;5.80;;;2.70;;
13969;SDS011;7057;49.984;8.404;2022-11-10T05:19:03;5.05;;;2.90;;
13969;SDS011;7057;49.984;8.404;2022-11-10T05:21:30;4.40;;;2.78;;
13969;SDS011;7057;49.984;8.404;2022-11-10T05:23:58;5.38;;;3.20;;
13969;SDS011;7057;49.984;8.404;2022-11-10T05:26:27;6.53;;;2.60;;
13969;SDS011;7057;49.984;8.404;2022-11-10T05:28:54;6.75;;;2.70;;
13969;SDS011;7057;49.984;8.404;2022-11-10T05:31:21;4.18;;;2.40;;
13969;SDS011;7057;49.984;8.404;2022-11-10T05:33:48;5.65;;;2.50;;
13969;SDS011;7057;49.984;8.404;2022-11-10T05:36:15;5.55;;;2.78;;
13969;SDS011;7057;49.984;8.404;2022-11-10T05:38:43;5.43;;;2.92;;
13969;SDS011;7057;49.984;8.404;2022-11-10T05:41:10;4.80;;;2.90;;
13969;SDS011;7057;49.984;8.404;2022-11-10T05:43:38;4.88;;;2.75;;
13969;SDS011;7057;49.984;8.404;2022-11-10T05:46:05;5.10;;;2.90;;
13969;SDS011;7057;49.984;8.404;2022-11-10T05:48:33;6.43;;;2.85;;
13969;SDS011;7057;49.984;8.404;2022-11-10T05:51:00;5.72;;;3.03;;
13969;SDS011;7057;49.984;8.404;2022-11-10T05:53:27;5.00;;;3.10;;
13969;SDS011;7057;49.984;8.404;2022-11-10T05:55:54;5.00;;;3.08;;
13969;SDS011;7057;49.984;8.404;2022-11-10T05:58:21;4.33;;;3.23;;
13969;SDS011;7057;49.984;8.404;2022-11-10T06:00:50;5.72;;;3.00;;
13969;SDS011;7057;49.984;8.404;2022-11-10T06:03:17;4.97;;;3.17;;
13969;SDS011;7057;49.984;8.404;2022-11-10T06:05:45;5.53;;;3.20;;
13969;SDS011;7057;49.984;8.404;2022-11-10T06:08:12;6.47;;;3.45;;
13969;SDS011;7057;49.984;8.404;2022-11-10T06:10:40;7.20;;;2.88;;
13969;SDS011;7057;49.984;8.404;2022-11-10T06:13:07;4.65;;;2.85;;
13969;SDS011;7057;49.984;8.404;2022-11-10T06:15:35;5.07;;;2.97;;
13969;SDS011;7057;49.984;8.404;2022-11-10T06:18:03;6.68;;;3.08;;
13969;SDS011;7057;49.984;8.404;2022-11-10T06:20:31;6.32;;;3.63;;
13969;SDS011;7057;49.984;8.404;2022-11-10T06:22:59;8.77;;;3.95;;
13969;SDS011;7057;49.984;8.404;2022-11-10T06:25:28;5.57;;;3.42;;
13969;SDS011;7057;49.984;8.404;2022-11-10T06:27:56;4.93;;;3.85;;
13969;SDS011;7057;49.984;8.404;2022-11-10T06:30:23;9.60;;;4.28;;
13969;SDS011;7057;49.984;8.404;2022-11-10T06:32:51;5.57;;;3.70;;
13969;SDS011;7057;49.984;8.404;2022-11-10T06:35:20;6.43;;;3.60;;
13969;SDS011;7057;49.984;8.404;2022-11-10T06:37:55;6.95;;;4.55;;
13969;SDS011;7057;49.984;8.404;2022-11-10T06:40:23;8.30;;;4.20;;
13969;SDS011;7057;49.984;8.404;2022-11-10T06:42:50;7.23;;;4.30;;
13969;SDS011;7057;49.984;8.404;2022-11-10T06:45:18;6.82;;;4.20;;
13969;SDS011;7057;49.984;8.404;2022-11-10T06:47:45;8.60;;;5.13;;
13969;SDS011;7057;49.984;8.404;2022-11-10T06:50:12;7.67;;;4.60;;
13969;SDS011;7057;49.984;8.404;2022-11-10T06:52:41;6.57;;;4.47;;
13969;SDS011;7057;49.984;8.404;2022-11-10T06:55:08;7.57;;;4.85;;
13969;SDS011;7057;49.984;8.404;2022-11-10T06:57:38;7.07;;;4.55;;
13969;SDS011;7057;49.984;8.404;2022-11-10T07:00:06;8.57;;;5.17;;
13969;SDS011;7057;49.984;8.404;2022-11-10T07:02:34;8.50;;;4.90;;
13969;SDS011;7057;49.984;8.404;2022-11-10T07:05:01;6.10;;;4.37;;
13969;SDS011;7057;49.984;8.404;2022-11-10T07:07:29;6.77;;;4.53;;
13969;SDS011;7057;49.984;8.404;2022-11-10T07:09:58;7.60;;;4.47;;
13969;SDS011;7057;49.984;8.404;2022-11-10T07:12:25;9.20;;;5.00;;
13969;SDS011;7057;49.984;8.404;2022-11-10T07:14:53;8.40;;;5.63;;
13969;SDS011;7057;49.984;8.404;2022-11-10T07:17:20;10.17;;;5.80;;
13969;SDS011;7057;49.984;8.404;2022-11-10T07:19:47;11.40;;;6.17;;
13969;SDS011;7057;49.984;8.404;2022-11-10T07:22:14;10.37;;;6.27;;
13969;SDS011;7057;49.984;8.404;2022-11-10T07:24:41;13.83;;;6.27;;
13969;SDS011;7057;49.984;8.404;2022-11-10T07:27:10;8.83;;;5.77;;
13969;SDS011;7057;49.984;8.404;2022-11-10T07:29:37;8.67;;;6.03;;
13969;SDS011;7057;49.984;8.404;2022-11-10T07:32:04;9.83;;;6.40;;
13969;SDS011;7057;49.984;8.404;2022-11-10T07:34:31;9.00;;;5.73;;
13969;SDS011;7057;49.984;8.404;2022-11-10T07:36:58;10.77;;;5.17;;
13969;SDS011;7057;49.984;8.404;2022-11-10T07:39:25;8.27;;;6.07;;
13969;SDS011;7057;49.984;8.404;2022-11-10T07:41:52;9.03;;;6.13;;
13969;SDS011;7057;49.984;8.404;2022-11-10T07:44:21;12.50;;;6.00;;
13969;SDS011;7057;49.984;8.404;2022-11-10T07:46:48;11.00;;;7.10;;
13969;SDS011;7057;49.984;8.404;2022-11-10T07:49:16;10.47;;;6.23;;
13969;SDS011;7057;49.984;8.404;2022-11-10T07:51:43;9.97;;;6.10;;
13969;SDS011;7057;49.984;8.404;2022-11-10T07:54:10;10.47;;;6.97;;
13969;SDS011;7057;49.984;8.404;2022-11-10T07:56:37;11.53;;;7.20;;
13969;SDS011;7057;49.984;8.404;2022-11-10T07:59:05;10.70;;;7.10;;
13969;SDS011;7057;49.984;8.404;2022-11-10T08:01:34;12.93;;;7.53;;
13969;SDS011;7057;49.984;8.404;2022-11-10T08:04:01;10.47;;;7.00;;
13969;SDS011;7057;49.984;8.404;2022-11-10T08:06:29;14.80;;;7.37;;
13969;SDS011;7057;49.984;8.404;2022-11-10T08:08:56;12.87;;;6.83;;
13969;SDS011;7057;49.984;8.404;2022-11-10T08:11:23;12.00;;;6.30;;
13969;SDS011;7057;49.984;8.404;2022-11-10T08:13:50;13.13;;;6.77;;
13969;SDS011;7057;49.984;8.404;2022-11-10T08:16:17;12.40;;;6.60;;
13969;SDS011;7057;49.984;8.404;2022-11-10T08:18:46;12.97;;;7.13;;
13969;SDS011;7057;49.984;8.404;2022-11-10T08:21:13;10.80;;;6.57;;
13969;SDS011;7057;49.984;8.404;2022-11-10T08:23:40;10.37;;;6.77;;
13969;SDS011;7057;49.984;8.404;2022-11-10T08:26:08;14.17;;;7.43;;
13969;SDS011;7057;49.984;8.404;2022-11-10T08:28:35;14.40;;;8.38;;
13969;SDS011;7057;49.984;8.404;2022-11-10T08:31:02;12.20;;;7.43;;
13969;SDS011;7057;49.984;8.404;2022-11-10T08:33:29;10.75;;;6.82;;
13969;SDS011;7057;49.984;8.404;2022-11-10T08:35:59;10.13;;;6.90;;
13969;SDS011;7057;49.984;8.404;2022-11-10T08:38:27;16.90;;;6.87;;
13969;SDS011;7057;49.984;8.404;2022-11-10T08:40:54;12.97;;;6.63;;
13969;SDS011;7057;49.984;8.404;2022-11-10T08:43:22;11.97;;;6.30;;
13969;SDS011;7057;49.984;8.404;2022-11-10T08:45:49;11.83;;;5.87;;
13969;SDS011;7057;49.984;8.404;2022-11-10T08:48:20;11.27;;;6.10;;
13969;SDS011;7057;49.984;8.404;2022-11-10T08:50:48;11.97;;;6.27;;
13969;SDS011;7057;49.984;8.404;2022-11-10T08:53:18;10.33;;;6.77;;
13969;SDS011;7057;49.984;8.404;2022-11-10T08:55:46;14.80;;;6.47;;
13969;SDS011;7057;49.984;8.404;2022-11-10T08:58:14;11.43;;;5.83;;
13969;SDS011;7057;49.984;8.404;2022-11-10T09:00:43;11.40;;;6.10;;
13969;SDS011;7057;49.984;8.404;2022-11-10T09:03:11;10.48;;;5.85;;
13969;SDS011;7057;49.984;8.404;2022-11-10T09:05:39;13.17;;;6.23;;
13969;SDS011;7057;49.984;8.404;2022-11-10T09:08:08;16.67;;;5.50;;
13969;SDS011;7057;49.984;8.404;2022-11-10T09:10:38;10.33;;;5.17;;
13969;SDS011;7057;49.984;8.404;2022-11-10T09:13:06;9.27;;;4.73;;
13969;SDS011;7057;49.984;8.404;2022-11-10T09:15:34;7.67;;;4.87;;
13969;SDS011;7057;49.984;8.404;2022-11-10T09:18:02;8.00;;;4.30;;
13969;SDS011;7057;49.984;8.404;2022-11-10T09:20:31;5.20;;;3.87;;
13969;SDS011;7057;49.984;8.404;2022-11-10T09:23:02;6.07;;;3.37;;
13969;SDS011;7057;49.984;8.404;2022-11-10T09:25:30;5.53;;;3.53;;
13969;SDS011;7057;49.984;8.404;2022-11-10T09:27:58;6.77;;;3.57;;
13969;SDS011;7057;49.984;8.404;2022-11-10T09:30:25;9.33;;;3.83;;
13969;SDS011;7057;49.984;8.404;2022-11-10T09:32:53;10.20;;;3.80;;
13969;SDS011;7057;49.984;8.404;2022-11-10T09:35:21;4.97;;;3.20;;
13969;SDS011;7057;49.984;8.404;2022-11-10T09:37:48;7.67;;;4.13;;
13969;SDS011;7057;49.984;8.404;2022-11-10T09:40:16;5.00;;;3.50;;
13969;SDS011;7057;49.984;8.404;2022-11-10T09:42:47;6.53;;;3.10;;
13969;SDS011;7057;49.984;8.404;2022-11-10T09:45:19;7.37;;;3.33;;
13969;SDS011;7057;49.984;8.404;2022-11-10T09:47:51;7.33;;;3.53;;
13969;SDS011;7057;49.984;8.404;2022-11-10T09:50:28;8.57;;;3.43;;
13969;SDS011;7057;49.984;8.404;2022-11-10T09:53:01;6.03;;;3.30;;
13969;SDS011;7057;49.984;8.404;2022-11-10T09:55:32;8.37;;;3.90;;
13969;SDS011;7057;49.984;8.404;2022-11-10T09:58:04;9.60;;;3.87;;
13969;SDS011;7057;49.984;8.404;2022-11-10T10:00:32;7.20;;;3.13;;
13969;SDS011;7057;49.984;8.404;2022-11-10T10:03:01;6.43;;;3.27;;
13969;SDS011;7057;49.984;8.404;2022-11-10T10:05:38;5.97;;;3.17;;
13969;SDS011;7057;49.984;8.404;2022-11-10T10:08:19;7.10;;;3.60;;
13969;SDS011;7057;49.984;8.404;2022-11-10T10:10:54;4.93;;;3.10;;
13969;SDS011;7057;49.984;8.404;2022-11-10T10:13:36;12.10;;;3.57;;
13969;SDS011;7057;49.984;8.404;2022-11-10T10:16:16;7.43;;;3.67;;
13969;SDS011;7057;49.984;8.404;2022-11-10T10:18:51;9.27;;;3.70;;
13969;SDS011;7057;49.984;8.404;2022-11-10T10:21:30;5.40;;;3.43;;
13969;SDS011;7057;49.984;8.404;2022-11-10T10:24:07;6.97;;;3.80;;
13969;SDS011;7057;49.984;8.404;2022-11-10T10:26:39;5.80;;;3.50;;
13969;SDS011;7057;49.984;8.404;2022-11-10T10:29:11;9.82;;;3.65;;
13969;SDS011;7057;49.984;8.404;2022-11-10T10:31:46;5.17;;;2.50;;
13969;SDS011;7057;49.984;8.404;2022-11-10T10:34:16;6.10;;;2.80;;
13969;SDS011;7057;49.984;8.404;2022-11-10T10:36:44;10.60;;;3.10;;
13969;SDS011;7057;49.984;8.404;2022-11-10T10:39:12;4.27;;;2.83;;
13969;SDS011;7057;49.984;8.404;2022-11-10T10:41:43;7.67;;;3.03;;
13969;SDS011;7057;49.984;8.404;2022-11-10T10:44:11;9.57;;;3.10;;
13969;SDS011;7057;49.984;8.404;2022-11-10T10:46:43;5.83;;;2.80;;
13969;SDS011;7057;49.984;8.404;2022-11-10T10:49:15;5.63;;;2.73;;
13969;SDS011;7057;49.984;8.404;2022-11-10T10:51:44;10.27;;;2.70;;
13969;SDS011;7057;49.984;8.404;2022-11-10T10:54:21;6.07;;;2.80;;
13969;SDS011;7057;49.984;8.404;2022-11-10T10:56:50;6.80;;;2.53;;
13969;SDS011;7057;49.984;8.404;2022-11-10T10:59:27;12.73;;;3.20;;
13969;SDS011;7057;49.984;8.404;2022-11-10T11:01:56;5.87;;;2.57;;
13969;SDS011;7057;49.984;8.404;2022-11-10T11:04:27;6.30;;;2.67;;
13969;SDS011;7057;49.984;8.404;2022-11-10T11:07:00;7.53;;;2.90;;
13969;SDS011;7057;49.984;8.404;2022-11-10T11:09:29;4.30;;;2.47;;
13969;SDS011;7057;49.984;8.404;2022-11-10T11:12:05;5.33;;;2.30;;
13969;SDS011;7057;49.984;8.404;2022-11-10T11:14:34;6.07;;;2.47;;
13969;SDS011;7057;49.984;8.404;2022-11-10T11:17:16;6.87;;;2.97;;
13969;SDS011;7057;49.984;8.404;2022-11-10T11:19:45;6.77;;;2.10;;
13969;SDS011;7057;49.984;8.404;2022-11-10T11:22:31;5.50;;;2.50;;
13969;SDS011;7057;49.984;8.404;2022-11-10T11:25:15;7.87;;;2.60;;
13969;SDS011;7057;49.984;8.404;2022-11-10T11:27:50;4.73;;;2.70;;
13969;SDS011;7057;49.984;8.404;2022-11-10T11:30:27;5.23;;;2.53;;
13969;SDS011;7057;49.984;8.404;2022-11-10T11:33:11;6.67;;;2.80;;
13969;SDS011;7057;49.984;8.404;2022-11-10T11:35:55;4.93;;;2.60;;
13969;SDS011;7057;49.984;8.404;2022-11-10T11:38:29;8.43;;;2.70;;
13969;SDS011;7057;49.984;8.404;2022-11-10T11:41:00;5.93;;;2.60;;
13969;SDS011;7057;49.984;8.404;2022-11-10T11:46:33;6.70;;;2.60;;
13969;SDS011;7057;49.984;8.404;2022-11-10T11:49:32;6.30;;;2.53;;
13969;SDS011;7057;49.984;8.404;2022-11-10T11:52:10;6.87;;;2.63;;
13969;SDS011;7057;49.984;8.404;2022-11-10T11:54:52;8.23;;;2.67;;
13969;SDS011;7057;49.984;8.404;2022-11-10T11:57:30;9.73;;;2.80;;
13969;SDS011;7057;49.984;8.404;2022-11-10T12:00:07;5.63;;;2.57;;
13969;SDS011;7057;49.984;8.404;2022-11-10T12:02:51;6.17;;;2.57;;
13969;SDS011;7057;49.984;8.404;2022-11-10T12:05:43;5.80;;;2.93;;
13969;SDS011;7057;49.984;8.404;2022-11-10T12:08:18;6.80;;;2.90;;
13969;SDS011;7057;49.984;8.404;2022-11-10T12:10:54;8.27;;;2.93;;
13969;SDS011;7057;49.984;8.404;2022-11-10T12:13:35;7.93;;;2.67;;
13969;SDS011;7057;49.984;8.404;2022-11-10T12:16:07;5.60;;;2.77;;
13969;SDS011;7057;49.984;8.404;2022-11-10T12:18:44;5.37;;;2.40;;
13969;SDS011;7057;49.984;8.404;2022-11-10T12:21:26;4.03;;;2.40;;
13969;SDS011;7057;49.984;8.404;2022-11-10T12:24:06;6.25;;;2.70;;
13969;SDS011;7057;49.984;8.404;2022-11-10T12:26:46;5.33;;;2.77;;
13969;SDS011;7057;49.984;8.404;2022-11-10T12:29:20;5.33;;;2.53;;
13969;SDS011;7057;49.984;8.404;2022-11-10T12:31:53;5.40;;;2.77;;
13969;SDS011;7057;49.984;8.404;2022-11-10T12:34:27;5.93;;;2.90;;
13969;SDS011;7057;49.984;8.404;2022-11-10T12:37:00;5.13;;;2.87;;
13969;SDS011;7057;49.984;8.404;2022-11-10T12:39:36;8.93;;;3.40;;
13969;SDS011;7057;49.984;8.404;2022-11-10T12:42:11;6.13;;;3.30;;
13969;SDS011;7057;49.984;8.404;2022-11-10T12:44:46;6.10;;;2.73;;
13969;SDS011;7057;49.984;8.404;2022-11-10T12:47:21;5.37;;;3.53;;
13969;SDS011;7057;49.984;8.404;2022-11-10T12:49:54;5.73;;;2.97;;
13969;SDS011;7057;49.984;8.404;2022-11-10T12:52:30;7.93;;;3.67;;
13969;SDS011;7057;49.984;8.404;2022-11-10T12:54:59;6.80;;;3.13;;
13969;SDS011;7057;49.984;8.404;2022-11-10T12:57:27;5.67;;;2.80;;
13969;SDS011;7057;49.984;8.404;2022-11-10T12:59:55;11.07;;;3.20;;
13969;SDS011;7057;49.984;8.404;2022-11-10T13:02:27;7.43;;;3.60;;
13969;SDS011;7057;49.984;8.404;2022-11-10T13:05:07;4.97;;;3.00;;
13969;SDS011;7057;49.984;8.404;2022-11-10T13:08:04;7.47;;;3.67;;
13969;SDS011;7057;49.984;8.404;2022-11-10T13:10:37;6.73;;;3.20;;
13969;SDS011;7057;49.984;8.404;2022-11-10T13:13:16;7.77;;;3.27;;
13969;SDS011;7057;49.984;8.404;2022-11-10T13:15:44;7.50;;;3.27;;
13969;SDS011;7057;49.984;8.404;2022-11-10T13:18:21;4.93;;;2.70;;
13969;SDS011;7057;49.984;8.404;2022-11-10T13:20:50;11.33;;;3.40;;
13969;SDS011;7057;49.984;8.404;2022-11-10T13:23:21;5.80;;;3.00;;
13969;SDS011;7057;49.984;8.404;2022-11-10T13:25:51;7.33;;;3.40;;
13969;SDS011;7057;49.984;8.404;2022-11-10T13:31:39;5.30;;;2.80;;
13969;SDS011;7057;49.984;8.404;2022-11-10T13:34:26;7.73;;;3.07;;
13969;SDS011;7057;49.984;8.404;2022-11-10T13:36:54;5.23;;;2.43;;
13969;SDS011;7057;49.984;8.404;2022-11-10T13:39:23;8.17;;;3.37;;
13969;SDS011;7057;49.984;8.404;2022-11-10T13:41:55;7.23;;;3.33;;
13969;SDS011;7057;49.984;8.404;2022-11-10T13:44:30;7.27;;;2.50;;
13969;SDS011;7057;49.984;8.404;2022-11-10T13:47:04;6.70;;;2.73;;
13969;SDS011;7057;49.984;8.404;2022-11-10T13:50:01;5.63;;;3.53;;
13969;SDS011;7057;49.984;8.404;2022-11-10T13:52:44;4.80;;;2.80;;
13969;SDS011;7057;49.984;8.404;2022-11-10T13:55:33;6.13;;;3.03;;
13969;SDS011;7057;49.984;8.404;2022-11-10T13:58:16;6.57;;;3.30;;
13969;SDS011;7057;49.984;8.404;2022-11-10T14:00:48;5.40;;;3.20;;
13969;SDS011;7057;49.984;8.404;2022-11-10T14:06:27;5.73;;;2.80;;
13969;SDS011;7057;49.984;8.404;2022-11-10T14:09:05;6.67;;;3.30;;
13969;SDS011;7057;49.984;8.404;2022-11-10T14:11:44;7.60;;;2.93;;
13969;SDS011;7057;49.984;8.404;2022-11-10T14:14:16;5.30;;;3.00;;
13969;SDS011;7057;49.984;8.404;2022-11-10T14:16:47;10.67;;;3.37;;
13969;SDS011;7057;49.984;8.404;2022-11-10T14:19:17;4.17;;;2.80;;
13969;SDS011;7057;49.984;8.404;2022-11-10T14:21:54;6.03;;;3.23;;
13969;SDS011;7057;49.984;8.404;2022-11-10T14:24:25;3.90;;;2.47;;
13969;SDS011;7057;49.984;8.404;2022-11-10T14:26:57;5.03;;;2.90;;
13969;SDS011;7057;49.984;8.404;2022-11-10T14:29:29;6.37;;;3.30;;
13969;SDS011;7057;49.984;8.404;2022-11-10T14:31:59;5.30;;;3.27;;
13969;SDS011;7057;49.984;8.404;2022-11-10T14:34:28;8.33;;;2.80;;
13969;SDS011;7057;49.984;8.404;2022-11-10T14:36:58;7.37;;;2.90;;
13969;SDS011;7057;49.984;8.404;2022-11-10T14:39:28;4.50;;;2.93;;
13969;SDS011;7057;49.984;8.404;2022-11-10T14:41:59;6.47;;;3.30;;
13969;SDS011;7057;49.984;8.404;2022-11-10T14:44:29;5.97;;;3.07;;
13969;SDS011;7057;49.984;8.404;2022-11-10T14:47:11;5.23;;;2.87;;
13969;SDS011;7057;49.984;8.404;2022-11-10T14:49:40;8.33;;;3.37;;
13969;SDS011;7057;49.984;8.404;2022-11-10T14:52:08;6.63;;;3.33;;
13969;SDS011;7057;49.984;8.404;2022-11-10T14:54:37;5.97;;;3.03;;
13969;SDS011;7057;49.984;8.404;2022-11-10T14:57:14;5.03;;;3.07;;
13969;SDS011;7057;49.984;8.404;2022-11-10T14:59:44;5.90;;;3.63;;
13969;SDS011;7057;49.984;8.404;2022-11-10T15:02:13;5.33;;;3.10;;
13969;SDS011;7057;49.984;8.404;2022-11-10T15:04:42;4.50;;;3.00;;
13969;SDS011;7057;49.984;8.404;2022-11-10T15:07:10;4.87;;;2.53;;
13969;SDS011;7057;49.984;8.404;2022-11-10T15:09:37;7.40;;;3.03;;
13969;SDS011;7057;49.984;8.404;2022-11-10T15:12:06;5.90;;;3.13;;
13969;SDS011;7057;49.984;8.404;2022-11-10T15:14:44;8.93;;;3.43;;
13969;SDS011;7057;49.984;8.404;2022-11-10T15:17:13;6.63;;;3.30;;
13969;SDS011;7057;49.984;8.404;2022-11-10T15:19:51;7.03;;;3.00;;
13969;SDS011;7057;49.984;8.404;2022-11-10T15:22:20;5.03;;;3.03;;
13969;SDS011;7057;49.984;8.404;2022-11-10T15:24:57;8.40;;;2.97;;
13969;SDS011;7057;49.984;8.404;2022-11-10T15:27:27;7.17;;;3.30;;
13969;SDS011;7057;49.984;8.404;2022-11-10T15:29:56;6.53;;;3.00;;